Time;durP1;ratioP1;P1;durP2;ratioP2;P2;SDS_P1;SDS_P2;PMS_P1;PMS_P2;Temp;Humidity;BMP_temperature;BMP_pressure;BME280_temperature;BME280_humidity;BME280_pressure;Samples;Min_cycle;Max_cycle;Signal;HPM_P1;HPM_P2
2023/06/08 00:00:10;;;;;;;;;21.00;19.00;;;;;22.90;41.42;101080.41;4934282;28;45706;-74
2023/06/08 00:02:36;;;;;;;;;21.00;17.00;;;;;22.94;41.60;101097.16;4949202;28;45730;-69
2023/06/08 00:05:03;;;;;;;;;17.67;17.00;;;;;22.94;41.62;101100.69;4934721;28;45997;-71
2023/06/08 00:07:29;;;;;;;;;18.00;18.00;;;;;22.84;41.81;101081.53;4934726;28;45358;-70
2023/06/08 00:09:56;;;;;;;;;18.00;16.33;;;;;22.94;41.37;101091.81;4934828;28;45828;-69
2023/06/08 00:12:22;;;;;;;;;18.67;16.33;;;;;22.96;41.76;101093.47;4932871;28;45506;-73
2023/06/08 00:14:48;;;;;;;;;18.67;17.00;;;;;22.96;41.80;101089.94;4934576;28;45436;-73
2023/06/08 00:17:14;;;;;;;;;22.67;19.67;;;;;22.86;41.81;101084.13;4936573;28;45390;-74
2023/06/08 00:19:42;;;;;;;;;19.00;18.00;;;;;22.71;42.12;101079.44;4941138;28;45383;-73
2023/06/08 00:22:08;;;;;;;;;18.33;16.67;;;;;22.62;42.78;101086.06;4937781;28;45551;-69
2023/06/08 00:24:37;;;;;;;;;19.67;16.67;;;;;22.50;42.57;101068.78;4939181;28;45417;-69
2023/06/08 00:27:05;;;;;;;;;18.67;17.00;;;;;22.53;42.76;101083.78;4940788;28;46706;-70
2023/06/08 00:29:31;;;;;;;;;16.67;14.67;;;;;22.62;42.75;101083.41;4941675;28;45669;-71
2023/06/08 00:31:56;;;;;;;;;18.33;16.67;;;;;22.62;42.65;101084.25;4941484;28;45407;-74
2023/06/08 00:34:22;;;;;;;;;17.67;16.33;;;;;22.66;42.53;101071.66;4941635;28;45532;-70
2023/06/08 00:36:47;;;;;;;;;24.00;19.67;;;;;22.64;43.23;101062.84;4941741;28;45601;-69
2023/06/08 00:39:13;;;;;;;;;17.33;15.67;;;;;22.49;43.12;101052.81;4940016;28;45462;-69
2023/06/08 00:41:41;;;;;;;;;18.67;17.67;;;;;22.53;43.28;101059.75;4937823;28;45703;-70
2023/06/08 00:44:08;;;;;;;;;20.00;18.67;;;;;22.49;43.25;101063.50;4936091;28;45400;-71
2023/06/08 00:46:35;;;;;;;;;23.67;23.00;;;;;22.48;43.66;101067.09;4935701;28;48479;-71
2023/06/08 00:49:01;;;;;;;;;26.00;22.67;;;;;22.39;44.00;101058.53;4937719;28;45443;-70
2023/06/08 00:51:31;;;;;;;;;22.67;20.67;;;;;22.29;44.32;101053.66;4939997;28;45544;-72
2023/06/08 00:53:57;;;;;;;;;19.33;19.00;;;;;22.22;44.38;101053.03;4941296;28;45599;-72
2023/06/08 00:56:26;;;;;;;;;22.67;22.33;;;;;22.10;44.89;101058.88;4938606;28;45754;-70
2023/06/08 00:58:56;;;;;;;;;27.00;23.00;;;;;21.97;45.24;101051.38;4936943;28;45431;-69
2023/06/08 01:01:25;;;;;;;;;23.00;21.00;;;;;21.86;45.25;101045.59;4939241;28;45917;-70
2023/06/08 01:03:55;;;;;;;;;26.67;22.67;;;;;21.77;46.23;101056.63;4935553;28;45435;-75
2023/06/08 01:06:21;;;;;;;;;21.67;19.33;;;;;21.76;45.67;101061.09;4951557;28;47021;-73
2023/06/08 01:09:13;;;;;;;;;17.00;16.33;;;;;21.71;45.64;101044.41;4936753;28;45852;-70
2023/06/08 01:12:00;;;;;;;;;21.33;19.67;;;;;21.83;45.79;101058.16;4940520;28;45372;-69
2023/06/08 01:14:25;;;;;;;;;19.67;18.67;;;;;21.78;45.80;101053.91;4937615;28;45516;-71
2023/06/08 01:16:55;;;;;;;;;20.67;19.00;;;;;21.77;45.91;101045.94;4935151;28;48011;-71
2023/06/08 01:19:57;;;;;;;;;16.33;16.00;;;;;21.87;45.61;101044.66;4936435;28;45416;-70
2023/06/08 01:22:53;;;;;;;;;24.00;18.67;;;;;21.97;45.25;101056.69;4923606;28;45511;-71
2023/06/08 01:25:22;;;;;;;;;21.33;19.33;;;;;21.89;45.33;101042.78;4935443;28;45598;-69
2023/06/08 01:27:48;;;;;;;;;20.33;16.33;;;;;21.88;45.71;101061.50;4938945;28;46084;-70
2023/06/08 01:30:14;;;;;;;;;23.00;20.00;;;;;21.79;46.01;101058.28;4935770;28;45478;-70
2023/06/08 01:32:40;;;;;;;;;19.00;19.00;;;;;21.82;45.89;101059.97;4951715;28;45482;-71
2023/06/08 01:35:05;;;;;;;;;22.67;17.00;;;;;21.66;46.15;101041.03;4936670;28;45305;-70
2023/06/08 01:37:40;;;;;;;;;22.00;20.33;;;;;21.69;45.99;101045.38;4938374;28;45812;-70
2023/06/08 01:40:14;;;;;;;;;23.67;22.00;;;;;21.77;46.11;101052.13;4938076;28;45380;-69
2023/06/08 01:42:46;;;;;;;;;22.33;21.67;;;;;21.76;46.00;101057.56;4935198;28;46386;-74
2023/06/08 01:45:20;;;;;;;;;20.33;18.67;;;;;21.64;46.17;101050.91;4938842;28;45425;-74
2023/06/08 01:47:51;;;;;;;;;26.67;25.67;;;;;21.65;46.49;101065.09;4940458;28;46107;-70
2023/06/08 01:50:19;;;;;;;;;24.33;22.00;;;;;21.61;46.94;101053.66;4938560;28;45520;-69
2023/06/08 01:52:45;;;;;;;;;20.00;20.00;;;;;21.56;46.70;101061.84;4937022;28;45541;-74
2023/06/08 01:55:16;;;;;;;;;24.00;22.00;;;;;21.50;46.99;101054.09;4936753;28;45786;-73
2023/06/08 01:57:41;;;;;;;;;24.67;22.67;;;;;21.40;47.34;101044.69;4936536;28;45403;-76
2023/06/08 02:00:08;;;;;;;;;18.00;17.33;;;;;21.34;47.60;101052.91;4940523;28;45333;-70
2023/06/08 02:02:35;;;;;;;;;22.67;20.33;;;;;21.40;47.40;101055.34;4955293;28;45472;-71
2023/06/08 02:05:01;;;;;;;;;26.33;21.00;;;;;21.53;47.20;101061.97;4940364;28;45399;-71
2023/06/08 02:07:27;;;;;;;;;25.00;24.00;;;;;21.47;46.96;101043.53;4940712;28;45313;-69
2023/06/08 02:09:52;;;;;;;;;21.67;21.33;;;;;21.45;46.87;101039.19;4939300;28;45424;-73
2023/06/08 02:12:18;;;;;;;;;23.00;21.00;;;;;21.60;47.01;101070.59;4951642;28;45540;-70
2023/06/08 02:14:47;;;;;;;;;27.67;26.00;;;;;21.57;47.32;101054.75;4935752;28;45460;-70
2023/06/08 02:17:13;;;;;;;;;22.33;21.00;;;;;21.43;47.28;101047.28;4952038;28;46612;-72
2023/06/08 02:19:39;;;;;;;;;23.00;20.33;;;;;21.52;47.37;101059.34;4937772;28;45384;-71
2023/06/08 02:22:05;;;;;;;;;21.00;19.33;;;;;21.50;47.31;101066.56;4936877;28;45325;-72
2023/06/08 02:24:30;;;;;;;;;18.67;18.67;;;;;21.57;47.12;101065.41;4938931;28;45952;-71
2023/06/08 02:26:56;;;;;;;;;25.00;21.67;;;;;21.60;47.02;101058.13;4939612;28;45605;-72
2023/06/08 02:29:23;;;;;;;;;22.33;18.33;;;;;21.71;46.88;101065.72;4938210;28;45771;-73
2023/06/08 02:31:49;;;;;;;;;19.33;15.67;;;;;21.73;46.85;101050.50;4951433;28;45509;-74
2023/06/08 02:34:15;;;;;;;;;26.00;22.33;;;;;21.78;46.96;101055.66;4934920;28;45780;-73
2023/06/08 02:36:42;;;;;;;;;21.33;18.67;;;;;21.82;46.86;101049.28;4935787;28;45468;-72
2023/06/08 02:39:07;;;;;;;;;20.33;18.33;;;;;21.83;46.98;101042.16;4950032;28;45677;-71
2023/06/08 02:41:33;;;;;;;;;20.67;20.33;;;;;21.81;47.31;101045.78;4935642;28;45580;-71
2023/06/08 02:43:59;;;;;;;;;23.00;22.00;;;;;21.60;47.63;101023.50;4935034;28;45405;-70
2023/06/08 02:46:24;;;;;;;;;22.00;20.67;;;;;21.65;47.64;101046.44;4937888;28;46123;-72
2023/06/08 02:48:50;;;;;;;;;25.00;25.00;;;;;21.30;48.01;101009.50;4935872;28;45401;-73
2023/06/08 02:51:16;;;;;;;;;35.00;29.00;;;;;21.50;48.31;101043.44;4934153;28;45449;-72
2023/06/08 02:53:42;;;;;;;;;32.67;30.33;;;;;21.45;48.23;101050.75;4935764;28;45470;-72
2023/06/08 02:56:08;;;;;;;;;30.00;27.00;;;;;21.25;48.85;101045.25;4936959;28;47617;-70
2023/06/08 02:58:33;;;;;;;;;30.33;30.33;;;;;21.10;48.86;101034.25;4935053;28;45490;-70
2023/06/08 03:01:00;;;;;;;;;28.33;26.00;;;;;21.06;49.17;101042.41;4935999;28;45812;-71
2023/06/08 03:03:29;;;;;;;;;34.67;26.00;;;;;20.73;49.63;101010.75;4937700;28;45398;-71
2023/06/08 03:05:58;;;;;;;;;25.67;24.67;;;;;20.92;49.93;101042.91;4935420;28;45520;-73
2023/06/08 03:08:27;;;;;;;;;21.67;21.67;;;;;20.99;49.40;101048.88;4934018;28;45494;-72
2023/06/08 03:10:53;;;;;;;;;31.00;24.33;;;;;21.02;49.17;101044.31;4949753;28;45396;-72
2023/06/08 03:13:18;;;;;;;;;23.67;21.33;;;;;21.06;49.33;101037.94;4936493;28;45361;-68
2023/06/08 03:15:47;;;;;;;;;21.33;20.33;;;;;21.11;49.01;101045.78;4937661;28;45603;-71
2023/06/08 03:18:12;;;;;;;;;29.33;27.67;;;;;21.10;49.34;101034.25;4936579;28;45434;-74
2023/06/08 03:20:40;;;;;;;;;30.33;25.33;;;;;21.01;49.64;101034.59;4934957;28;45663;-70
2023/06/08 03:23:06;;;;;;;;;21.33;21.00;;;;;20.95;49.72;101040.13;4934312;28;45350;-70
2023/06/08 03:25:31;;;;;;;;;28.33;27.67;;;;;20.98;49.75;101031.19;4938653;28;45966;-68
2023/06/08 03:27:57;;;;;;;;;38.33;27.33;;;;;20.84;49.77;101021.91;4937339;28;45452;-70
2023/06/08 03:30:22;;;;;;;;;31.67;26.00;;;;;21.03;49.73;101040.72;4934768;28;45596;-72
2023/06/08 03:32:48;;;;;;;;;24.67;22.33;;;;;21.08;49.49;101040.56;4935229;28;45469;-70
2023/06/08 03:35:16;;;;;;;;;25.67;23.00;;;;;21.15;49.38;101034.09;4934762;28;46121;-71
2023/06/08 03:37:41;;;;;;;;;24.67;23.33;;;;;21.14;48.91;101017.25;4934636;28;45636;-73
2023/06/08 03:40:07;;;;;;;;;25.67;23.00;;;;;21.19;48.76;101014.41;4934821;28;45364;-70
2023/06/08 03:42:33;;;;;;;;;27.67;24.33;;;;;21.35;48.46;101031.53;4933567;28;45481;-72
2023/06/08 03:44:58;;;;;;;;;25.00;24.33;;;;;21.32;48.50;101020.13;4935474;28;46011;-71
2023/06/08 03:47:25;;;;;;;;;29.67;28.00;;;;;21.44;48.39;101030.34;4933247;28;45686;-72
2023/06/08 03:49:51;;;;;;;;;28.33;27.33;;;;;21.49;48.00;101033.69;4934601;28;45292;-70
2023/06/08 03:52:17;;;;;;;;;27.67;26.00;;;;;21.41;47.88;101009.16;4932969;28;45569;-74
2023/06/08 03:54:43;;;;;;;;;27.00;24.33;;;;;21.51;47.51;101028.31;4933551;28;45574;-69
2023/06/08 03:57:10;;;;;;;;;20.00;19.00;;;;;21.42;47.73;101002.88;4934529;28;45367;-72
2023/06/08 03:59:36;;;;;;;;;33.00;27.00;;;;;21.51;47.33;101017.66;4933750;28;45611;-71
2023/06/08 04:02:02;;;;;;;;;26.33;22.33;;;;;21.52;47.35;101009.63;4934662;28;45819;-74
2023/06/08 04:04:31;;;;;;;;;26.33;23.67;;;;;21.60;47.59;101025.28;4932355;28;45510;-74
2023/06/08 04:07:00;;;;;;;;;30.33;27.00;;;;;21.57;48.08;101026.28;4915320;28;45462;-73
2023/06/08 04:09:28;;;;;;;;;29.33;25.67;;;;;21.36;48.51;101027.09;4930239;28;45513;-73
2023/06/08 04:11:55;;;;;;;;;26.00;25.00;;;;;21.43;48.26;101025.94;4941916;28;45975;-70
2023/06/08 04:14:21;;;;;;;;;24.00;23.00;;;;;21.54;48.40;101017.53;4949006;28;47823;-71
2023/06/08 04:16:46;;;;;;;;;23.67;22.33;;;;;21.65;48.02;101027.78;4936734;28;45476;-70
2023/06/08 04:19:11;;;;;;;;;23.33;21.67;;;;;21.70;47.87;101018.66;4938407;28;45347;-72
2023/06/08 04:21:38;;;;;;;;;31.33;27.33;;;;;21.73;47.40;101015.00;4937813;28;45443;-70
2023/06/08 04:24:03;;;;;;;;;26.00;25.00;;;;;21.65;47.63;101006.47;4934569;28;45631;-71
2023/06/08 04:26:32;;;;;;;;;22.67;22.67;;;;;21.58;48.18;101017.34;4935904;28;45711;-73
2023/06/08 04:28:58;;;;;;;;;24.00;21.67;;;;;21.67;47.99;101016.13;4938653;28;45392;-71
2023/06/08 04:31:24;;;;;;;;;22.67;21.67;;;;;21.77;47.67;101013.97;4934994;28;45492;-71
2023/06/08 04:33:52;;;;;;;;;28.67;24.67;;;;;21.76;47.40;101006.91;4932042;28;46685;-72
2023/06/08 04:36:18;;;;;;;;;24.67;23.00;;;;;21.78;47.58;101010.34;4936855;28;45373;-73
2023/06/08 04:38:43;;;;;;;;;28.33;23.33;;;;;21.81;47.17;101011.09;4938229;28;45380;-72
2023/06/08 04:41:11;;;;;;;;;25.00;24.00;;;;;21.71;47.85;101011.53;4936240;28;45492;-72
2023/06/08 04:43:37;;;;;;;;;22.67;20.00;;;;;21.72;47.66;101016.81;4933352;28;47707;-71
2023/06/08 04:46:05;;;;;;;;;30.67;26.00;;;;;21.81;47.09;101004.91;4935330;28;45855;-72
2023/06/08 04:48:33;;;;;;;;;29.00;29.00;;;;;21.95;47.49;101020.34;4934889;28;45477;-71
2023/06/08 04:51:02;;;;;;;;;31.33;28.00;;;;;21.99;47.25;101025.47;4935544;28;45470;-71
2023/06/08 04:53:33;;;;;;;;;29.00;27.33;;;;;21.68;47.61;100996.53;4949228;28;47670;-72
2023/06/08 04:56:01;;;;;;;;;25.67;22.67;;;;;21.74;47.25;101006.09;4951415;28;45399;-71
2023/06/08 04:58:28;;;;;;;;;27.67;27.67;;;;;21.87;47.71;101015.31;4925805;28;45616;-72
2023/06/08 05:00:54;;;;;;;;;29.67;26.67;;;;;21.87;47.80;101017.13;4953376;28;45496;-71
2023/06/08 05:03:25;;;;;;;;;26.33;24.33;;;;;21.91;47.46;101024.94;4954338;28;47137;-70
2023/06/08 05:05:51;;;;;;;;;29.33;29.33;;;;;21.89;47.61;101013.47;4954236;28;45545;-72
2023/06/08 05:08:17;;;;;;;;;29.67;25.67;;;;;21.90;47.63;101015.22;4936050;28;45502;-72
2023/06/08 05:10:43;;;;;;;;;31.67;30.67;;;;;21.89;47.74;101021.44;4939937;28;45328;-72
2023/06/08 05:13:08;;;;;;;;;32.00;31.67;;;;;21.85;47.77;101014.50;4941451;28;46302;-72
2023/06/08 05:15:34;;;;;;;;;31.00;28.00;;;;;21.77;47.96;101014.81;4940601;28;45482;-71
2023/06/08 05:18:00;;;;;;;;;23.67;21.00;;;;;21.81;48.19;101018.25;4937602;28;45509;-71
2023/06/08 05:20:26;;;;;;;;;28.33;23.00;;;;;21.93;47.96;101017.75;4953716;28;45282;-72
2023/06/08 05:22:52;;;;;;;;;28.33;25.67;;;;;22.04;48.06;101019.94;4941194;28;46537;-71
2023/06/08 05:25:19;;;;;;;;;26.00;24.33;;;;;22.21;47.55;101025.50;4938077;28;45515;-71
2023/06/08 05:27:45;;;;;;;;;24.00;23.33;;;;;22.29;47.04;101010.97;4936549;28;45509;-70
2023/06/08 05:30:11;;;;;;;;;16.50;15.50;;;;;22.35;47.31;101019.59;4939387;28;45511;-70
2023/06/08 05:32:37;;;;;;;;;19.00;19.00;;;;;22.43;46.96;101012.13;4933929;28;45774;-71
2023/06/08 05:35:03;;;;;;;;;25.67;22.00;;;;;22.51;46.66;101011.78;4936267;28;45437;-70
2023/06/08 05:37:29;;;;;;;;;25.33;23.67;;;;;22.51;46.54;100997.56;4938075;28;45369;-71
2023/06/08 05:39:55;;;;;;;;;26.33;26.33;;;;;22.69;46.59;101023.47;4936714;28;45507;-70
2023/06/08 05:42:21;;;;;;;;;30.67;28.67;;;;;22.66;46.47;101007.59;4939054;28;45539;-72
2023/06/08 05:44:46;;;;;;;;;33.67;30.00;;;;;22.78;46.36;101015.06;4936670;28;45727;-72
2023/06/08 05:47:12;;;;;;;;;26.33;23.00;;;;;22.75;46.79;101016.97;4937274;28;45426;-72
2023/06/08 05:49:38;;;;;;;;;27.33;25.00;;;;;22.78;46.42;101007.03;4939203;28;45519;-71
2023/06/08 05:52:04;;;;;;;;;22.67;21.00;;;;;22.93;46.34;101015.31;4940726;28;45471;-73
2023/06/08 05:54:30;;;;;;;;;26.00;24.67;;;;;22.99;46.23;101009.69;4940778;28;45439;-72
2023/06/08 05:56:55;;;;;;;;;21.67;21.33;;;;;23.11;45.97;101013.63;4940667;28;45487;-73
2023/06/08 05:59:21;;;;;;;;;37.00;31.67;;;;;23.10;46.04;100999.41;4940799;28;45539;-73
2023/06/08 06:01:48;;;;;;;;;28.67;26.00;;;;;22.96;46.69;101004.47;4939475;28;45479;-73
2023/06/08 06:04:14;;;;;;;;;31.00;27.33;;;;;22.95;46.86;100998.25;4934680;28;45398;-70
2023/06/08 06:06:40;;;;;;;;;30.33;28.67;;;;;22.92;46.92;100997.53;4935909;28;45611;-70
2023/06/08 06:09:06;;;;;;;;;27.00;26.00;;;;;23.02;46.53;100996.22;4934613;28;45592;-72
2023/06/08 06:11:31;;;;;;;;;33.67;30.00;;;;;23.13;46.31;101006.41;4935515;28;45474;-69
2023/06/08 06:14:00;;;;;;;;;31.33;27.00;;;;;23.06;46.46;100979.09;4949814;28;45617;-70
2023/06/08 06:16:26;;;;;;;;;32.67;30.00;;;;;23.24;46.73;101002.28;4936957;28;45369;-71
2023/06/08 06:18:51;;;;;;;;;43.00;35.33;;;;;23.17;46.97;101002.66;4938678;28;45259;-71
2023/06/08 06:21:17;;;;;;;;;33.67;29.67;;;;;23.05;46.83;100988.06;4936903;28;45696;-68
2023/06/08 06:23:44;;;;;;;;;32.67;29.00;;;;;23.17;46.81;101000.84;4935863;28;45812;-71
2023/06/08 06:26:11;;;;;;;;;32.33;30.67;;;;;23.31;46.71;100997.53;4953551;28;45454;-72
2023/06/08 06:28:37;;;;;;;;;47.67;38.00;;;;;23.26;47.16;100988.88;4935667;28;45370;-69
2023/06/08 06:31:03;;;;;;;;;32.00;30.00;;;;;23.26;46.94;100992.41;4935367;28;45501;-70
2023/06/08 06:33:29;;;;;;;;;31.67;29.00;;;;;23.40;46.75;100998.91;4939714;28;45358;-70
2023/06/08 06:35:55;;;;;;;;;43.00;35.33;;;;;23.48;46.85;101002.94;4939714;28;45353;-70
2023/06/08 06:38:20;;;;;;;;;47.75;39.75;;;;;23.45;46.85;101002.22;4935681;28;45486;-74
2023/06/08 06:40:49;;;;;;;;;46.33;37.33;;;;;23.36;47.32;101002.66;4933871;28;47287;-73
2023/06/08 06:43:14;;;;;;;;;41.67;34.67;;;;;23.28;47.88;101000.34;4935483;28;45400;-70
2023/06/08 06:45:40;;;;;;;;;44.33;34.67;;;;;23.28;47.87;100992.34;4935706;28;45641;-71
2023/06/08 06:48:11;;;;;;;;;41.00;33.00;;;;;23.35;47.75;100992.91;4936117;28;45394;-72
2023/06/08 06:50:37;;;;;;;;;44.00;33.33;;;;;23.29;47.67;100975.34;4933603;28;46239;-73
2023/06/08 06:53:03;;;;;;;;;50.33;40.00;;;;;23.36;47.62;100986.63;4935009;28;45492;-72
2023/06/08 06:55:28;;;;;;;;;46.33;36.33;;;;;23.38;48.22;100984.75;4935627;28;45489;-72
2023/06/08 06:57:54;;;;;;;;;36.33;30.33;;;;;23.42;48.06;100976.53;4933856;28;45503;-73
2023/06/08 07:00:21;;;;;;;;;29.67;28.33;;;;;23.59;47.42;100985.53;4934891;28;45439;-70
2023/06/08 07:02:48;;;;;;;;;51.50;41.75;;;;;23.54;47.01;100963.47;4949369;28;45737;-72
2023/06/08 07:05:14;;;;;;;;;41.67;34.67;;;;;23.54;47.68;100974.16;4937145;28;45443;-70
2023/06/08 07:07:40;;;;;;;;;36.33;30.67;;;;;23.62;47.06;100967.53;4939546;28;45463;-72
2023/06/08 07:10:06;;;;;;;;;33.33;30.33;;;;;23.88;46.53;100993.00;4938589;28;45492;-72
2023/06/08 07:12:32;;;;;;;;;37.00;30.00;;;;;23.87;47.04;100966.34;4933304;28;45867;-71
2023/06/08 07:14:57;;;;;;;;;32.33;29.67;;;;;23.82;47.42;100933.59;4935424;28;45880;-73
2023/06/08 07:17:26;;;;;;;;;44.00;35.33;;;;;24.16;46.50;100966.69;4935347;28;45701;-71
2023/06/08 07:19:53;;;;;;;;;37.67;32.67;;;;;23.65;46.89;100891.63;4937315;28;45382;-72
2023/06/08 07:22:18;;;;;;;;;38.33;31.67;;;;;24.38;47.09;100988.72;4938814;28;45465;-71
2023/06/08 07:24:44;;;;;;;;;35.67;32.67;;;;;24.05;46.51;100944.00;4938157;28;45286;-73
2023/06/08 07:27:10;;;;;;;;;43.00;34.33;;;;;24.38;47.38;100972.66;4933799;28;45572;-72
2023/06/08 07:29:36;;;;;;;;;40.00;33.33;;;;;24.53;46.35;100971.88;4935821;28;45349;-74
2023/06/08 07:32:02;;;;;;;;;37.67;32.00;;;;;24.62;46.08;100967.00;4939026;28;45524;-74
2023/06/08 07:34:28;;;;;;;;;45.67;38.00;;;;;24.71;46.56;100978.09;4939217;28;45394;-72
2023/06/08 07:36:53;;;;;;;;;38.67;32.67;;;;;24.74;46.15;100977.91;4934196;28;45518;-72
2023/06/08 07:39:19;;;;;;;;;31.67;28.67;;;;;24.60;45.67;100934.94;4934897;28;46327;-72
2023/06/08 07:41:45;;;;;;;;;28.67;24.67;;;;;24.73;45.84;100940.53;4932900;28;45864;-73
2023/06/08 07:44:11;;;;;;;;;45.33;37.00;;;;;24.87;45.76;100974.59;4934640;28;45532;-73
2023/06/08 07:46:36;;;;;;;;;39.33;32.67;;;;;24.60;46.26;100956.34;4936740;28;45551;-72
2023/06/08 07:49:02;;;;;;;;;45.33;35.33;;;;;24.71;46.04;100975.41;4937547;28;48061;-73
2023/06/08 07:51:30;;;;;;;;;42.00;35.00;;;;;24.67;45.94;100970.28;4938733;28;45531;-71
2023/06/08 07:53:56;;;;;;;;;50.67;41.00;;;;;24.53;45.87;100958.50;4938699;28;45532;-72
2023/06/08 07:56:21;;;;;;;;;36.33;32.00;;;;;24.44;46.26;100947.38;4935325;28;45538;-73
2023/06/08 07:58:48;;;;;;;;;41.67;35.00;;;;;24.66;46.29;100973.94;4938141;28;45329;-72
2023/06/08 08:01:14;;;;;;;;;49.00;39.67;;;;;24.55;46.32;100958.41;4939515;28;45426;-72
2023/06/08 08:03:39;;;;;;;;;43.33;35.67;;;;;24.49;46.90;100967.66;4937600;28;45590;-72
2023/06/08 08:06:06;;;;;;;;;52.00;43.33;;;;;24.36;46.53;100947.78;4934870;28;45498;-70
2023/06/08 08:08:31;;;;;;;;;47.67;37.00;;;;;24.39;47.11;100969.03;4919477;28;47235;-66
2023/06/08 08:10:57;;;;;;;;;44.67;35.33;;;;;24.48;46.88;100968.59;4919149;28;45589;-72
2023/06/08 08:13:23;;;;;;;;;50.33;41.67;;;;;24.55;46.56;100971.81;4918048;28;45278;-72
2023/06/08 08:15:48;;;;;;;;;52.25;43.75;;;;;24.37;46.77;100954.88;4915922;28;45425;-70
2023/06/08 08:18:14;;;;;;;;;43.67;34.67;;;;;24.33;47.83;100964.00;4913755;28;47966;-72
2023/06/08 08:20:40;;;;;;;;;47.00;39.00;;;;;24.40;47.18;100959.22;4929155;28;45481;-63
2023/06/08 08:23:06;;;;;;;;;49.00;40.00;;;;;24.39;47.52;100958.31;4915064;28;45359;-65
2023/06/08 08:25:31;;;;;;;;;49.33;38.67;;;;;24.37;47.20;100956.66;4916594;28;45521;-64
2023/06/08 08:27:57;;;;;;;;;46.67;37.67;;;;;24.49;46.86;100962.31;4915438;28;45864;-66
2023/06/08 08:30:23;;;;;;;;;45.33;36.00;;;;;24.46;46.87;100953.50;4915088;28;45345;-66
2023/06/08 08:32:49;;;;;;;;;51.00;41.33;;;;;24.44;47.38;100958.09;4917806;28;45487;-66
2023/06/08 08:35:15;;;;;;;;;41.33;32.67;;;;;24.34;47.85;100945.22;4919511;28;45463;-65
2023/06/08 08:37:42;;;;;;;;;48.67;39.33;;;;;24.55;47.54;100947.72;4919387;28;46234;-66
2023/06/08 08:40:11;;;;;;;;;51.33;40.00;;;;;24.60;47.45;100945.66;4918333;28;45355;-67
2023/06/08 08:42:44;;;;;;;;;35.00;30.33;;;;;24.67;46.98;100946.19;4917778;28;45452;-67
2023/06/08 08:45:13;;;;;;;;;38.00;31.33;;;;;24.82;47.45;100942.72;4918415;28;45882;-68
2023/06/08 08:47:40;;;;;;;;;31.67;29.00;;;;;24.98;46.95;100943.56;4920922;28;45882;-67
2023/06/08 08:50:06;;;;;;;;;32.33;30.00;;;;;25.13;46.72;100936.53;4921912;28;45516;-68
2023/06/08 08:52:34;;;;;;;;;30.33;28.33;;;;;25.29;46.04;100936.53;4935713;28;45766;-66
2023/06/08 08:55:00;;;;;;;;;33.67;31.00;;;;;25.36;45.67;100937.91;4918154;28;45385;-66
2023/06/08 08:57:30;;;;;;;;;37.00;32.33;;;;;25.46;45.38;100932.94;4917979;28;45634;-66
2023/06/08 08:59:56;;;;;;;;;30.33;30.00;;;;;25.58;45.71;100928.66;4917865;28;45435;-64
2023/06/08 09:02:23;;;;;;;;;40.67;35.00;;;;;25.71;45.29;100928.81;4915687;28;45579;-66
2023/06/08 09:04:50;;;;;;;;;34.67;30.67;;;;;25.71;44.77;100929.66;4940248;28;45452;-66
2023/06/08 09:07:24;;;;;;;;;31.67;28.67;;;;;25.79;45.11;100930.09;4936888;28;45425;-67
2023/06/08 09:10:19;;;;;;;;;32.67;30.67;;;;;25.87;44.83;100929.69;4936859;28;45818;-65
2023/06/08 09:12:47;;;;;;;;;39.00;34.00;;;;;25.94;44.45;100919.44;4935275;28;45584;-65
2023/06/08 09:15:16;;;;;;;;;45.00;36.33;;;;;26.05;44.29;100932.22;4937511;28;45841;-65
2023/06/08 09:17:43;;;;;;;;;41.33;35.33;;;;;26.01;43.69;100927.03;4940839;28;45559;-66
2023/06/08 09:20:12;;;;;;;;;47.33;36.33;;;;;25.99;43.90;100920.03;4940779;28;45915;-67
2023/06/08 09:22:39;;;;;;;;;44.33;36.33;;;;;25.83;44.07;100914.69;4938123;28;45365;-66
2023/06/08 09:25:09;;;;;;;;;44.00;35.67;;;;;25.88;43.79;100920.66;4937133;28;45520;-66
2023/06/08 09:27:35;;;;;;;;;47.00;36.33;;;;;25.73;44.18;100927.78;4936749;28;45862;-67
2023/06/08 09:30:01;;;;;;;;;40.33;34.33;;;;;25.55;44.01;100902.00;4951378;28;45361;-66
2023/06/08 09:32:34;;;;;;;;;37.00;33.00;;;;;25.64;44.08;100914.88;4950939;28;45590;-66
2023/06/08 09:35:04;;;;;;;;;35.00;32.67;;;;;25.63;44.18;100902.44;4936401;28;45447;-66
2023/06/08 09:37:32;;;;;;;;;31.33;29.67;;;;;25.79;45.07;100919.38;4936405;28;46267;-64
2023/06/08 09:40:04;;;;;;;;;28.67;26.67;;;;;25.86;44.87;100903.78;4939222;28;45369;-65
2023/06/08 09:42:43;;;;;;;;;38.67;30.67;;;;;26.00;44.25;100911.03;4940216;28;45346;-65
2023/06/08 09:45:12;;;;;;;;;29.00;28.00;;;;;26.07;43.83;100895.41;4940863;28;45512;-66
2023/06/08 09:47:38;;;;;;;;;43.00;34.33;;;;;26.15;43.36;100912.78;4937705;28;46044;-67
2023/06/08 09:50:07;;;;;;;;;43.00;35.33;;;;;26.22;43.14;100913.28;4950710;28;45448;-65
2023/06/08 09:52:33;;;;;;;;;35.67;32.33;;;;;26.24;43.00;100908.66;4936110;28;45414;-67
2023/06/08 09:55:00;;;;;;;;;46.00;37.33;;;;;26.32;42.57;100909.09;4935675;28;45790;-66
2023/06/08 09:57:27;;;;;;;;;43.50;36.00;;;;;26.21;42.42;100900.81;4938633;28;46091;-67
2023/06/08 10:00:13;;;;;;;;;42.33;33.00;;;;;26.15;42.53;100902.06;4934209;28;45665;-68
2023/06/08 10:03:02;;;;;;;;;48.33;37.00;;;;;26.01;43.19;100902.03;4939597;28;45385;-68
2023/06/08 10:05:30;;;;;;;;;41.33;35.00;;;;;25.96;43.21;100896.03;4940127;28;45503;-68
2023/06/08 10:07:58;;;;;;;;;37.33;33.00;;;;;25.88;42.66;100888.47;4939954;28;46576;-68
2023/06/08 10:10:32;;;;;;;;;41.67;35.67;;;;;25.88;42.87;100888.47;4937558;28;45470;-70
2023/06/08 10:12:58;;;;;;;;;37.67;33.33;;;;;25.82;43.11;100888.81;4934136;28;45620;-69
2023/06/08 10:15:25;;;;;;;;;39.33;31.67;;;;;25.82;42.84;100883.44;4939181;28;45480;-70
2023/06/08 10:17:52;;;;;;;;;37.67;33.00;;;;;25.91;42.41;100887.41;4934406;28;46890;-65
2023/06/08 10:20:17;;;;;;;;;44.67;34.67;;;;;25.96;41.51;100894.25;4936939;28;45402;-66
2023/06/08 10:22:45;;;;;;;;;35.67;33.33;;;;;25.88;41.96;100884.91;4938243;28;45504;-68
2023/06/08 10:25:13;;;;;;;;;38.00;32.00;;;;;25.94;41.96;100881.88;4934987;28;45339;-68
2023/06/08 10:27:50;;;;;;;;;33.67;31.33;;;;;26.05;42.34;100878.53;4933875;28;47236;-65
2023/06/08 10:30:39;;;;;;;;;39.67;33.33;;;;;26.24;41.91;100887.19;4938516;28;45552;-66
2023/06/08 10:33:10;;;;;;;;;32.00;30.33;;;;;26.29;40.72;100882.44;4935640;28;45781;-68
2023/06/08 10:35:37;;;;;;;;;31.00;30.33;;;;;26.31;39.88;100874.25;4936318;28;45701;-70
2023/06/08 10:38:14;;;;;;;;;28.33;27.33;;;;;26.42;39.83;100866.41;4935125;28;46279;-70
2023/06/08 10:40:47;;;;;;;;;31.67;30.33;;;;;26.52;39.38;100866.69;4935151;28;45950;-70
2023/06/08 10:43:13;;;;;;;;;33.00;31.67;;;;;26.55;39.78;100855.78;4933876;28;45516;-69
2023/06/08 10:45:43;;;;;;;;;30.67;30.00;;;;;26.56;40.08;100853.00;4934209;28;45389;-68
2023/06/08 10:48:13;;;;;;;;;30.33;29.67;;;;;26.63;40.25;100840.91;4949738;28;47254;-71
2023/06/08 10:50:44;;;;;;;;;33.67;32.00;;;;;26.90;38.67;100861.59;4935383;28;45852;-70
2023/06/08 10:53:10;;;;;;;;;32.33;31.00;;;;;26.87;37.98;100861.81;4935095;28;45705;-70
2023/06/08 10:55:36;;;;;;;;;31.33;28.00;;;;;26.94;37.43;100843.47;4936502;28;45578;-68
2023/06/08 10:58:06;;;;;;;;;30.33;29.00;;;;;26.97;38.08;100852.16;4937484;28;45820;-68
2023/06/08 11:00:33;;;;;;;;;30.67;30.00;;;;;26.96;36.81;100844.22;4934640;28;45321;-69
2023/06/08 11:03:05;;;;;;;;;29.00;27.00;;;;;26.84;37.74;100843.19;4935819;28;45415;-70
2023/06/08 11:05:35;;;;;;;;;30.00;29.00;;;;;27.01;37.41;100842.94;4935321;28;45455;-69
2023/06/08 11:08:01;;;;;;;;;32.00;27.33;;;;;27.03;37.64;100816.84;4934697;28;45495;-70
2023/06/08 11:10:28;;;;;;;;;30.00;27.67;;;;;27.01;37.86;100836.72;4935385;28;45436;-73